Pagina principale
METAR-TAF:

METAR-TAF

Aeroporti :

Aeroporto di Taranto-Grottaglie

Taranto, Italia

latitudine: 40-31N, longitudine: 017-24E, altezza: 64 m

Osservazione

Il bollettino è stato emesso 5 ore e 0 minuti fa, alle 18:50 UTC
Vento 3 kt da est/sud-est
Temperature 12°C
Umidità 82%
Pressione 1009 hPa
Visibilità 10 km o più
Poco nuvoloso ad un'altezza di 2500 ft

METAR: LIBG 261850Z 12003KT 9999 FEW025 12/09 Q1009

Ora: 00:50 (23:50 UTC)

Previsione

Il bollettino è stato emesso 6 ore e 50 minuti fa, alle 17:00 UTC
Previsione valida dal 26 alle 18 UTC al 27 alle 03 UTC
Vento 5 kt da direzioni variabili
Visibilità 10 km o più
Nubi sparse ad un'altezza di 3000 ft

TAF: LIBG 261700Z 2618/2703 VRB05KT 9999 SCT030

Osservazioni e previsioni meteorologiche di più di 4000 aeroporti (messaggi METAR e TAF).

Le stazioni disponibili sono rappresentate dai dischi gialli e rossi sulla carta.

Puntare il mouse per vedere il nome della stazione.

Clicca sopra per visualizzare le osservazioni e previsioni meteorologiche.

Per cambiare la mappa : fare clic sui pulsanti verdi con una croce nera per ingrandire, il pulsante verde con un trattino per diminuire, o sulla freccia verde per le mappe adiacenti.


METAR-TAF: